createdAt,value
2022-09-22T00:00:10.133Z,9.44
2022-09-22T00:01:10.244Z,9.40
2022-09-22T00:02:10.344Z,9.49
2022-09-22T00:03:10.086Z,9.49
2022-09-22T00:04:10.433Z,9.45
2022-09-22T00:05:10.049Z,9.51
2022-09-22T00:06:09.864Z,9.45
2022-09-22T00:07:09.879Z,9.49
2022-09-22T00:08:10.179Z,9.52
2022-09-22T00:09:09.814Z,9.51
2022-09-22T00:10:09.854Z,9.52
2022-09-22T00:11:09.639Z,9.45
2022-09-22T00:12:09.595Z,9.49
2022-09-22T00:13:09.826Z,9.51
2022-09-22T00:14:09.569Z,9.51
2022-09-22T00:15:09.891Z,9.49
2022-09-22T00:16:09.544Z,9.45
2022-09-22T00:17:09.507Z,9.52
2022-09-22T00:18:09.324Z,9.47
2022-09-22T00:19:09.582Z,9.45
2022-09-22T00:20:09.237Z,9.44
2022-09-22T00:21:09.315Z,9.40
2022-09-22T00:22:09.139Z,9.40
2022-09-22T00:23:09.337Z,9.42
2022-09-22T00:24:09.053Z,9.31
2022-09-22T00:25:09.147Z,9.42
2022-09-22T00:26:09.028Z,9.34
2022-09-22T00:27:08.951Z,9.36
2022-09-22T00:28:09.166Z,9.33
2022-09-22T00:29:09.011Z,9.29
2022-09-22T00:30:08.790Z,9.27
2022-09-22T00:31:09.083Z,9.31
2022-09-22T00:32:08.827Z,9.31
2022-09-22T00:33:08.997Z,9.30
2022-09-22T00:34:08.602Z,9.27
2022-09-22T00:35:08.575Z,9.24
2022-09-22T00:36:08.589Z,9.19
2022-09-22T00:37:08.721Z,9.21
2022-09-22T00:38:08.425Z,9.30
2022-09-22T00:39:08.583Z,9.31
2022-09-22T00:40:08.433Z,9.34
2022-09-22T00:41:08.324Z,9.26
2022-09-22T00:42:08.619Z,9.33
2022-09-22T00:43:08.273Z,9.27
2022-09-22T00:44:08.582Z,9.31
2022-09-22T00:45:08.198Z,9.30
2022-09-22T00:46:08.171Z,9.21
2022-09-22T00:47:08.032Z,9.19
2022-09-22T00:48:08.197Z,9.16
2022-09-22T00:49:07.975Z,9.21
2022-09-22T00:50:08.070Z,9.15
2022-09-22T00:51:07.831Z,9.21
2022-09-22T00:52:08.061Z,9.16
2022-09-22T00:53:07.786Z,9.16
2022-09-22T00:54:07.886Z,9.05
2022-09-22T00:55:07.764Z,9.03
2022-09-22T00:56:07.926Z,9.05
2022-09-22T00:57:07.717Z,9.08
2022-09-22T00:58:07.566Z,9.11
2022-09-22T00:59:07.624Z,9.19
2022-09-22T01:00:07.739Z,9.13
2022-09-22T01:01:07.533Z,9.05
2022-09-22T01:02:07.661Z,9.02
2022-09-22T01:03:07.692Z,9.15
2022-09-22T01:04:07.319Z,9.00
2022-09-22T01:05:07.399Z,8.97
2022-09-22T01:06:07.162Z,9.02
2022-09-22T01:07:07.546Z,8.97
2022-09-22T01:08:07.163Z,9.02
2022-09-22T01:09:07.229Z,9.05
2022-09-22T01:10:07.004Z,9.00
2022-09-22T01:11:07.311Z,8.96
2022-09-22T01:12:06.884Z,8.96
2022-09-22T01:13:07.120Z,8.95
2022-09-22T01:14:06.794Z,9.03
2022-09-22T01:15:06.893Z,8.95
2022-09-22T01:16:06.851Z,8.95
2022-09-22T01:17:06.988Z,8.93
2022-09-22T01:18:06.633Z,8.96
2022-09-22T01:19:07.003Z,8.96
2022-09-22T01:20:06.565Z,8.97
2022-09-22T01:21:06.687Z,8.99
2022-09-22T01:22:06.531Z,8.96
2022-09-22T01:23:06.520Z,8.90
2022-09-22T01:24:06.438Z,8.81
2022-09-22T01:25:06.696Z,8.93
2022-09-22T01:26:06.517Z,8.82
2022-09-22T01:27:06.412Z,8.93
2022-09-22T01:28:06.343Z,8.84
2022-09-22T01:29:06.117Z,8.84
2022-09-22T01:30:06.431Z,8.89
2022-09-22T01:31:06.127Z,8.86
2022-09-22T01:32:06.001Z,8.79
2022-09-22T01:33:06.267Z,8.79
2022-09-22T01:34:05.993Z,8.86
2022-09-22T01:35:05.981Z,8.71
2022-09-22T01:36:05.848Z,8.86
2022-09-22T01:37:05.747Z,8.77
2022-09-22T01:38:06.117Z,8.72
2022-09-22T01:39:05.944Z,8.64
2022-09-22T01:40:05.706Z,8.59
2022-09-22T01:41:05.832Z,8.59
2022-09-22T01:42:05.517Z,8.60
2022-09-22T01:43:05.628Z,8.71
2022-09-22T01:44:05.572Z,8.75
2022-09-22T01:45:05.660Z,8.60
2022-09-22T01:46:05.384Z,8.63
2022-09-22T01:47:05.552Z,8.59
2022-09-22T01:48:05.247Z,8.64
2022-09-22T01:49:05.524Z,8.60
2022-09-22T01:50:05.309Z,8.60
2022-09-22T01:51:05.284Z,8.72
2022-09-22T01:52:05.080Z,8.77
2022-09-22T01:53:05.029Z,8.72
2022-09-22T01:54:05.057Z,8.60
2022-09-22T01:55:05.156Z,8.60
2022-09-22T01:56:05.082Z,8.63
2022-09-22T01:57:06.216Z,8.52
2022-09-22T01:58:04.801Z,8.69
2022-09-22T01:59:04.756Z,8.44
2022-09-22T02:00:04.921Z,8.49
2022-09-22T02:01:04.740Z,8.52
2022-09-22T02:02:06.024Z,8.50
2022-09-22T02:03:04.704Z,8.60
2022-09-22T02:04:04.521Z,8.44
2022-09-22T02:05:05.055Z,8.50
2022-09-22T02:06:04.599Z,8.41
2022-09-22T02:07:04.472Z,8.46
2022-09-22T02:08:04.577Z,8.45
2022-09-22T02:09:04.481Z,8.53
2022-09-22T02:10:04.346Z,8.49
2022-09-22T02:11:04.437Z,8.38
2022-09-22T02:12:04.216Z,8.44
2022-09-22T02:13:04.512Z,8.38
2022-09-22T02:14:04.151Z,8.41
2022-09-22T02:15:04.020Z,8.42
2022-09-22T02:16:04.463Z,8.44
2022-09-22T02:17:03.924Z,8.39
2022-09-22T02:18:04.119Z,8.41
2022-09-22T02:19:12.307Z,8.46
2022-09-22T02:20:04.088Z,8.41
2022-09-22T02:21:03.769Z,8.46
2022-09-22T02:22:03.852Z,8.35
2022-09-22T02:23:03.754Z,8.38
2022-09-22T02:24:03.907Z,8.39
2022-09-22T02:25:03.655Z,8.31
2022-09-22T02:26:03.625Z,8.28
2022-09-22T02:27:03.744Z,8.27
2022-09-22T02:28:03.800Z,8.31
2022-09-22T02:29:03.475Z,8.27
2022-09-22T02:30:03.581Z,8.26
2022-09-22T02:31:20.300Z,8.27
2022-09-22T02:32:03.298Z,8.31
2022-09-22T02:33:03.577Z,8.32
2022-09-22T02:34:03.225Z,8.31
2022-09-22T02:35:03.357Z,8.27
2022-09-22T02:36:03.073Z,8.27
2022-09-22T02:37:03.021Z,8.18
2022-09-22T02:38:03.074Z,8.18
2022-09-22T02:39:03.566Z,8.24
2022-09-22T02:40:02.970Z,8.21
2022-09-22T02:41:02.970Z,8.21
2022-09-22T02:42:02.789Z,8.20
2022-09-22T02:43:02.980Z,8.23
2022-09-22T02:44:02.698Z,8.27
2022-09-22T02:45:02.994Z,8.26
2022-09-22T02:46:02.700Z,8.17
2022-09-22T02:47:02.857Z,8.18
2022-09-22T02:48:02.576Z,8.21
2022-09-22T02:49:02.614Z,8.18
2022-09-22T02:50:02.742Z,8.14
2022-09-22T02:51:02.702Z,8.09
2022-09-22T02:52:02.343Z,8.13
2022-09-22T02:53:02.414Z,8.05
2022-09-22T02:54:02.315Z,8.01
2022-09-22T02:55:02.365Z,8.03
2022-09-22T02:56:02.484Z,8.06
2022-09-22T02:57:02.339Z,8.02
2022-09-22T02:58:02.061Z,8.09
2022-09-22T02:59:02.134Z,8.01
2022-09-22T03:00:04.039Z,8.02
2022-09-22T03:01:01.957Z,7.93
2022-09-22T03:02:03.234Z,7.90
2022-09-22T03:03:01.911Z,7.96
2022-09-22T03:04:09.314Z,7.99
2022-09-22T03:05:01.769Z,7.96
2022-09-22T03:06:01.693Z,7.93
2022-09-22T03:07:01.650Z,7.95
2022-09-22T03:08:01.623Z,7.95
2022-09-22T03:09:01.557Z,7.90
2022-09-22T03:10:01.513Z,7.98
2022-09-22T03:11:01.466Z,7.95
2022-09-22T03:12:01.417Z,7.99
2022-09-22T03:13:17.553Z,7.90
2022-09-22T03:14:01.340Z,7.93
2022-09-22T03:15:01.285Z,8.02
2022-09-22T03:16:01.276Z,7.93
2022-09-22T03:17:01.199Z,8.11
2022-09-22T03:18:01.162Z,8.05
2022-09-22T03:19:01.099Z,8.02
2022-09-22T03:20:01.051Z,7.99
2022-09-22T03:21:01.002Z,8.01
2022-09-22T03:22:00.961Z,8.03
2022-09-22T03:23:00.914Z,8.03
2022-09-22T03:24:01.024Z,8.05
2022-09-22T03:25:00.824Z,8.05
2022-09-22T03:26:00.777Z,7.98
2022-09-22T03:27:00.728Z,7.99
2022-09-22T03:28:00.688Z,8.02
2022-09-22T03:29:00.636Z,8.03
2022-09-22T03:30:00.621Z,8.08
2022-09-22T03:31:00.577Z,8.01
2022-09-22T03:32:00.500Z,8.02
2022-09-22T03:33:00.457Z,7.93
2022-09-22T03:34:00.445Z,7.93
2022-09-22T03:35:00.371Z,7.90
2022-09-22T03:36:00.318Z,7.93
2022-09-22T03:37:00.275Z,7.93
2022-09-22T03:38:00.232Z,7.95
2022-09-22T03:39:00.315Z,7.96
2022-09-22T03:40:00.163Z,7.95
2022-09-22T03:41:00.092Z,7.96
2022-09-22T03:42:00.050Z,7.96
2022-09-22T03:42:59.997Z,7.96
2022-09-22T03:43:59.954Z,7.95
2022-09-22T03:44:59.906Z,7.95
2022-09-22T03:45:59.911Z,7.93
2022-09-22T03:46:59.819Z,7.98
2022-09-22T03:47:59.770Z,7.91
2022-09-22T03:48:59.723Z,7.95
2022-09-22T03:49:59.679Z,7.93
2022-09-22T03:50:59.633Z,7.91
2022-09-22T03:51:59.611Z,7.99
2022-09-22T03:52:59.542Z,7.95
2022-09-22T03:53:59.525Z,7.98
2022-09-22T03:54:59.449Z,7.96
2022-09-22T03:55:59.406Z,7.90
2022-09-22T03:56:59.370Z,7.91
2022-09-22T03:57:59.329Z,7.95
2022-09-22T03:58:59.264Z,7.95
2022-09-22T03:59:59.223Z,7.93
2022-09-22T04:00:59.209Z,7.90
2022-09-22T04:01:59.159Z,7.80
2022-09-22T04:02:59.080Z,7.85
2022-09-22T04:03:59.080Z,7.81
2022-09-22T04:04:58.993Z,7.84
2022-09-22T04:05:58.945Z,7.88
2022-09-22T04:07:02.234Z,7.87
2022-09-22T04:07:58.852Z,7.87
2022-09-22T04:08:58.811Z,7.83
2022-09-22T04:09:58.775Z,7.77
2022-09-22T04:10:58.718Z,7.72
2022-09-22T04:11:58.697Z,7.74
2022-09-22T04:12:58.622Z,7.80
2022-09-22T04:13:58.585Z,7.75
2022-09-22T04:14:58.553Z,7.77
2022-09-22T04:15:58.492Z,7.64
2022-09-22T04:16:58.494Z,7.69
2022-09-22T04:17:58.416Z,7.67
2022-09-22T04:18:58.353Z,7.69
2022-09-22T04:19:58.311Z,7.61
2022-09-22T04:20:58.257Z,7.66
2022-09-22T04:21:58.214Z,7.66
2022-09-22T04:22:58.165Z,7.64
2022-09-22T04:23:58.138Z,7.64
2022-09-22T04:24:58.080Z,7.70
2022-09-22T04:25:58.027Z,7.74
2022-09-22T04:27:18.498Z,7.64
2022-09-22T04:28:00.264Z,7.59
2022-09-22T04:28:57.890Z,7.58
2022-09-22T04:29:57.963Z,7.62
2022-09-22T04:30:57.839Z,7.61
2022-09-22T04:31:57.754Z,7.59
2022-09-22T04:32:57.713Z,7.67
2022-09-22T04:33:57.665Z,7.64
2022-09-22T04:34:57.614Z,7.66
2022-09-22T04:35:57.586Z,7.66
2022-09-22T04:36:57.523Z,7.69
2022-09-22T04:37:57.479Z,7.70
2022-09-22T04:38:57.550Z,7.64
2022-09-22T04:39:57.389Z,7.58
2022-09-22T04:40:57.339Z,7.55
2022-09-22T04:41:57.315Z,7.70
2022-09-22T04:42:57.249Z,7.47
2022-09-22T04:43:57.215Z,7.50
2022-09-22T04:44:57.159Z,7.50
2022-09-22T04:45:57.177Z,7.50
2022-09-22T04:46:57.064Z,7.41
2022-09-22T04:47:57.018Z,7.43
2022-09-22T04:48:56.987Z,7.47
2022-09-22T04:49:56.929Z,7.47
2022-09-22T04:50:56.882Z,7.56
2022-09-22T04:51:56.836Z,7.53
2022-09-22T04:52:56.792Z,7.56
2022-09-22T04:53:56.751Z,7.46
2022-09-22T04:54:56.716Z,7.39
2022-09-22T04:55:56.648Z,7.41
2022-09-22T04:56:56.610Z,7.58
2022-09-22T04:57:56.555Z,7.44
2022-09-22T04:58:56.511Z,7.53
2022-09-22T04:59:56.474Z,7.48
2022-09-22T05:00:56.510Z,7.44
2022-09-22T05:01:56.372Z,7.55
2022-09-22T05:02:56.357Z,7.43
2022-09-22T05:03:56.283Z,7.44
2022-09-22T05:04:56.241Z,7.50
2022-09-22T05:05:56.191Z,7.51
2022-09-22T05:06:56.169Z,7.55
2022-09-22T05:07:56.100Z,7.48
2022-09-22T05:08:56.055Z,7.47
2022-09-22T05:09:56.009Z,7.43
2022-09-22T05:10:55.959Z,7.36
2022-09-22T05:11:55.914Z,7.48
2022-09-22T05:12:55.891Z,7.55
2022-09-22T05:13:55.824Z,7.51
2022-09-22T05:14:55.779Z,7.43
2022-09-22T05:15:55.730Z,7.41
2022-09-22T05:16:55.728Z,7.40
2022-09-22T05:17:55.635Z,7.55
2022-09-22T05:18:55.621Z,7.40
2022-09-22T05:19:55.547Z,7.46
2022-09-22T05:20:55.502Z,7.51
2022-09-22T05:21:55.455Z,7.50
2022-09-22T05:22:55.408Z,7.40
2022-09-22T05:23:55.371Z,7.55
2022-09-22T05:24:55.342Z,7.47
2022-09-22T05:25:55.267Z,7.53
2022-09-22T05:26:55.222Z,7.53
2022-09-22T05:27:55.187Z,7.53
2022-09-22T05:28:55.130Z,7.50
2022-09-22T05:29:55.086Z,7.43
2022-09-22T05:30:55.080Z,7.46
2022-09-22T05:31:55.021Z,7.43
2022-09-22T05:32:54.946Z,7.56
2022-09-22T05:33:54.904Z,7.48
2022-09-22T05:34:54.855Z,7.43
2022-09-22T05:35:54.810Z,7.51
2022-09-22T05:36:54.781Z,7.53
2022-09-22T05:37:54.718Z,7.41
2022-09-22T05:38:54.669Z,7.50
2022-09-22T05:39:54.624Z,7.46
2022-09-22T05:40:54.583Z,7.53
2022-09-22T05:41:54.560Z,7.47
2022-09-22T05:42:54.488Z,7.53
2022-09-22T05:43:54.442Z,7.59
2022-09-22T05:44:54.397Z,7.62
2022-09-22T05:45:54.386Z,7.58
2022-09-22T05:46:54.302Z,7.62
2022-09-22T05:47:54.266Z,7.64
2022-09-22T05:48:54.208Z,7.59
2022-09-22T05:49:54.164Z,7.61
2022-09-22T05:50:54.119Z,7.64
2022-09-22T05:51:54.074Z,7.70
2022-09-22T05:52:54.054Z,7.59
2022-09-22T05:53:53.983Z,7.69
2022-09-22T05:54:53.937Z,7.69
2022-09-22T05:55:53.891Z,7.69
2022-09-22T05:56:53.846Z,7.74
2022-09-22T05:57:53.799Z,7.77
2022-09-22T05:58:53.785Z,7.75
2022-09-22T05:59:53.713Z,7.77
2022-09-22T06:03:47.258Z,7.77
2022-09-22T06:04:49.389Z,7.75
2022-09-22T06:05:47.159Z,7.69
2022-09-22T06:06:47.117Z,7.81
2022-09-22T06:07:47.064Z,7.72
2022-09-22T06:08:49.082Z,7.69
2022-09-22T06:09:46.971Z,7.77
2022-09-22T06:10:46.952Z,7.72
2022-09-22T06:11:46.881Z,7.74
2022-09-22T06:12:46.830Z,7.72
2022-09-22T06:13:46.786Z,7.83
2022-09-22T06:14:46.741Z,7.88
2022-09-22T06:15:46.709Z,7.84
2022-09-22T06:16:46.716Z,7.90
2022-09-22T06:17:46.602Z,7.91
2022-09-22T06:18:46.558Z,7.95
2022-09-22T06:19:46.514Z,7.93
2022-09-22T06:20:46.485Z,7.95
2022-09-22T06:21:46.442Z,8.09
2022-09-22T06:22:46.369Z,8.06
2022-09-22T06:23:46.325Z,8.01
2022-09-22T06:24:46.284Z,8.01
2022-09-22T06:25:46.239Z,8.11
2022-09-22T06:26:54.465Z,8.13
2022-09-22T06:27:46.147Z,8.17
2022-09-22T06:28:46.100Z,8.17
2022-09-22T06:29:46.054Z,8.24
2022-09-22T06:30:46.001Z,8.24
2022-09-22T06:31:46.010Z,8.35
2022-09-22T06:32:45.950Z,8.31
2022-09-22T06:33:45.875Z,8.34
2022-09-22T06:34:45.820Z,8.35
2022-09-22T06:35:45.774Z,8.41
2022-09-22T06:36:45.980Z,8.46
2022-09-22T06:37:45.687Z,8.39
2022-09-22T06:38:45.636Z,8.52
2022-09-22T06:39:45.589Z,8.52
2022-09-22T06:40:45.580Z,8.50
2022-09-22T06:41:45.500Z,8.61
2022-09-22T06:42:45.470Z,8.63
2022-09-22T06:43:45.412Z,8.68
2022-09-22T06:44:45.367Z,8.72
2022-09-22T06:45:45.354Z,8.74
2022-09-22T06:46:45.273Z,8.72
2022-09-22T06:47:45.252Z,8.84
2022-09-22T06:48:45.190Z,8.79
2022-09-22T06:49:45.142Z,8.77
2022-09-22T06:50:45.091Z,8.87
2022-09-22T06:51:45.070Z,8.87
2022-09-22T06:52:45.016Z,8.81
2022-09-22T06:53:48.593Z,8.79
2022-09-22T06:54:44.914Z,8.77
2022-09-22T06:55:44.889Z,8.95
2022-09-22T06:56:44.818Z,8.97
2022-09-22T06:57:44.773Z,8.95
2022-09-22T06:59:08.373Z,9.05
2022-09-22T06:59:44.676Z,9.08
2022-09-22T07:00:44.738Z,8.99
2022-09-22T07:01:44.810Z,9.12
2022-09-22T07:02:44.566Z,9.13
2022-09-22T07:03:44.505Z,9.15
2022-09-22T07:04:44.467Z,9.29
2022-09-22T07:05:44.409Z,9.30
2022-09-22T07:06:44.363Z,9.34
2022-09-22T07:07:44.319Z,9.36
2022-09-22T07:08:44.322Z,9.34
2022-09-22T07:09:44.231Z,9.44
2022-09-22T07:10:44.184Z,9.45
2022-09-22T07:11:44.135Z,9.45
2022-09-22T07:12:44.090Z,9.52
2022-09-22T07:13:44.048Z,9.55
2022-09-22T07:14:44.024Z,9.56
2022-09-22T07:15:43.955Z,9.69
2022-09-22T07:16:43.973Z,9.69
2022-09-22T07:17:43.864Z,9.72
2022-09-22T07:18:43.823Z,9.85
2022-09-22T07:19:43.779Z,9.85
2022-09-22T07:20:43.753Z,9.85
2022-09-22T07:21:43.684Z,9.91
2022-09-22T07:22:43.669Z,9.95
2022-09-22T07:23:43.596Z,10.05
2022-09-22T07:24:43.550Z,10.07
2022-09-22T07:25:43.511Z,10.07
2022-09-22T07:26:43.463Z,10.06
2022-09-22T07:27:43.445Z,10.21
2022-09-22T07:28:43.390Z,10.23
2022-09-22T07:29:43.325Z,10.31
2022-09-22T07:30:43.280Z,10.30
2022-09-22T07:31:43.430Z,10.39
2022-09-22T07:32:43.187Z,10.38
2022-09-22T07:33:43.318Z,10.53
2022-09-22T07:34:43.099Z,10.55
2022-09-22T07:35:43.051Z,10.65
2022-09-22T07:36:43.007Z,10.76
2022-09-22T07:37:42.965Z,10.77
2022-09-22T07:38:42.921Z,10.89
2022-09-22T07:39:42.919Z,10.97
2022-09-22T07:40:42.927Z,11.00
2022-09-22T07:41:42.782Z,11.10
2022-09-22T07:42:42.741Z,11.13
2022-09-22T07:43:42.692Z,11.15
2022-09-22T07:44:44.634Z,11.15
2022-09-22T07:45:42.618Z,11.26
2022-09-22T07:46:42.628Z,11.27
2022-09-22T07:47:42.518Z,11.40
2022-09-22T07:48:42.473Z,11.48
2022-09-22T07:49:42.428Z,11.49
2022-09-22T07:50:42.381Z,11.58
2022-09-22T07:51:42.385Z,11.51
2022-09-22T07:52:42.300Z,11.62
2022-09-22T07:53:42.251Z,11.60
2022-09-22T07:54:42.205Z,11.62
2022-09-22T07:55:42.159Z,11.77
2022-09-22T07:56:42.118Z,11.76
2022-09-22T07:57:42.112Z,11.83
2022-09-22T07:58:42.026Z,11.93
2022-09-22T07:59:41.984Z,11.93
2022-09-22T08:00:41.973Z,11.88
2022-09-22T08:01:41.920Z,11.88
2022-09-22T08:02:41.849Z,12.02
2022-09-22T08:03:41.843Z,12.03
2022-09-22T08:04:41.762Z,12.17
2022-09-22T08:05:41.717Z,12.17
2022-09-22T08:06:41.670Z,12.20
2022-09-22T08:07:41.649Z,12.25
2022-09-22T08:08:41.584Z,12.25
2022-09-22T08:09:41.577Z,12.28
2022-09-22T08:10:41.493Z,12.29
2022-09-22T08:11:41.447Z,12.30
2022-09-22T08:12:41.408Z,12.40
2022-09-22T08:13:41.364Z,12.50
2022-09-22T08:14:41.326Z,12.54
2022-09-22T08:15:41.324Z,12.54
2022-09-22T08:16:41.229Z,12.51
2022-09-22T08:17:41.192Z,12.69
2022-09-22T08:18:41.147Z,12.68
2022-09-22T08:19:41.095Z,12.75
2022-09-22T08:20:44.820Z,12.90
2022-09-22T08:21:48.470Z,12.83
2022-09-22T08:22:40.967Z,12.80
2022-09-22T08:23:40.929Z,12.86
2022-09-22T08:24:40.901Z,12.98
2022-09-22T08:25:40.840Z,13.01
2022-09-22T08:26:43.677Z,13.06
2022-09-22T08:27:40.747Z,13.17
2022-09-22T08:28:40.703Z,13.11
2022-09-22T08:29:40.664Z,13.16
2022-09-22T08:30:40.637Z,13.19
2022-09-22T08:31:40.630Z,13.30
2022-09-22T08:32:40.528Z,13.27
2022-09-22T08:33:40.493Z,13.30
2022-09-22T08:34:40.441Z,13.46
2022-09-22T08:35:40.401Z,13.54
2022-09-22T08:36:40.366Z,13.62
2022-09-22T08:37:40.312Z,13.62
2022-09-22T08:38:40.280Z,13.68
2022-09-22T08:39:40.266Z,13.68
2022-09-22T08:40:40.225Z,13.82
2022-09-22T08:41:40.137Z,13.94
2022-09-22T08:42:40.102Z,14.07
2022-09-22T08:43:40.054Z,14.33
2022-09-22T08:44:40.012Z,14.71
2022-09-22T08:45:39.972Z,15.23
2022-09-22T08:46:39.978Z,15.65
2022-09-22T08:47:39.891Z,16.05
2022-09-22T08:48:39.834Z,16.43
2022-09-22T08:49:39.793Z,16.80
2022-09-22T08:50:39.798Z,17.42
2022-09-22T08:51:39.705Z,18.00
2022-09-22T08:52:39.661Z,18.57
2022-09-22T08:53:39.621Z,19.16
2022-09-22T08:54:39.582Z,19.66
2022-09-22T08:55:39.542Z,20.26
2022-09-22T08:56:39.534Z,20.56
2022-09-22T08:57:39.463Z,20.88
2022-09-22T08:58:39.422Z,21.15
2022-09-22T08:59:39.394Z,21.68
2022-09-22T09:00:42.573Z,21.94
2022-09-22T09:01:39.344Z,22.21
2022-09-22T09:02:39.321Z,22.43
2022-09-22T09:03:39.223Z,22.59
2022-09-22T09:04:39.195Z,22.96
2022-09-22T09:05:39.170Z,23.25
2022-09-22T09:06:39.116Z,23.45
2022-09-22T09:07:39.077Z,23.52
2022-09-22T09:08:39.055Z,23.96
2022-09-22T09:09:39.007Z,24.29
2022-09-22T09:10:38.968Z,24.53
2022-09-22T09:11:38.935Z,24.68
2022-09-22T09:12:38.893Z,24.86
2022-09-22T09:13:38.874Z,25.14
2022-09-22T09:14:38.843Z,25.21
2022-09-22T09:15:38.847Z,25.56
2022-09-22T09:16:38.751Z,25.73
2022-09-22T09:17:38.722Z,26.07
2022-09-22T09:18:38.684Z,26.16
2022-09-22T09:19:38.641Z,26.33
2022-09-22T09:20:38.673Z,26.61
2022-09-22T09:21:38.575Z,26.97
2022-09-22T09:22:38.546Z,27.23
2022-09-22T09:25:38.443Z,28.04
2022-09-22T09:26:38.418Z,28.18
2022-09-22T09:27:38.370Z,28.47
2022-09-22T09:28:38.336Z,28.74
2022-09-22T09:29:38.307Z,29.02
2022-09-22T09:30:38.273Z,29.25
2022-09-22T09:31:38.259Z,29.49
2022-09-22T09:32:38.201Z,29.58
2022-09-22T09:33:38.181Z,29.80
2022-09-22T09:34:38.140Z,29.96
2022-09-22T09:35:41.272Z,29.96
2022-09-22T09:36:38.069Z,29.77
2022-09-22T09:37:38.046Z,30.16
2022-09-22T09:38:38.005Z,30.39
2022-09-22T09:39:37.973Z,30.44
2022-09-22T09:40:37.999Z,30.51
2022-09-22T09:41:37.908Z,30.63
2022-09-22T09:42:37.875Z,30.74
2022-09-22T09:43:37.845Z,30.74
2022-09-22T09:44:37.806Z,31.05
2022-09-22T09:45:37.775Z,31.26
2022-09-22T09:46:37.787Z,31.44
2022-09-22T09:47:37.707Z,31.41
2022-09-22T09:48:37.679Z,31.36
2022-09-22T09:49:37.646Z,31.08
2022-09-22T09:50:37.618Z,31.18
2022-09-22T09:51:39.815Z,31.39
2022-09-22T09:52:37.589Z,31.44
2022-09-22T09:53:41.019Z,31.60
2022-09-22T09:54:37.489Z,31.73
2022-09-22T09:55:37.466Z,31.98
2022-09-22T09:56:37.429Z,32.19
2022-09-22T09:57:37.393Z,32.37
2022-09-22T09:58:37.463Z,32.54
2022-09-22T09:59:37.338Z,32.61
2022-09-22T10:00:37.302Z,32.42
2022-09-22T10:01:37.301Z,32.17
2022-09-22T10:02:37.237Z,32.09
2022-09-22T10:03:37.246Z,32.29
2022-09-22T10:04:37.191Z,32.37
2022-09-22T10:05:37.151Z,32.09
2022-09-22T10:06:37.115Z,32.38
2022-09-22T10:07:37.084Z,32.56
2022-09-22T10:08:37.050Z,32.76
2022-09-22T10:09:37.017Z,33.03
2022-09-22T10:10:36.999Z,33.09
2022-09-22T10:11:36.960Z,32.97
2022-09-22T10:12:36.946Z,33.00
2022-09-22T10:13:36.903Z,32.88
2022-09-22T10:14:36.867Z,32.97
2022-09-22T10:15:36.888Z,33.04
2022-09-22T10:16:36.806Z,33.17
2022-09-22T10:17:36.774Z,33.26
2022-09-22T10:18:36.759Z,33.42
2022-09-22T10:19:36.714Z,33.51
2022-09-22T10:20:36.690Z,33.31
2022-09-22T10:21:36.663Z,33.47
2022-09-22T10:22:39.723Z,33.61
2022-09-22T10:23:36.590Z,33.77
2022-09-22T10:24:36.607Z,33.81
2022-09-22T10:25:36.544Z,33.79
2022-09-22T10:26:36.506Z,33.73
2022-09-22T10:27:36.478Z,33.73
2022-09-22T10:28:36.444Z,34.04
2022-09-22T10:29:36.419Z,34.33
2022-09-22T10:30:36.419Z,34.44
2022-09-22T10:31:36.396Z,34.66
2022-09-22T10:32:36.327Z,34.75
2022-09-22T10:33:39.376Z,34.78
2022-09-22T10:34:36.375Z,34.76
2022-09-22T10:35:36.244Z,34.98
2022-09-22T10:36:36.209Z,34.60
2022-09-22T10:37:36.182Z,34.65
2022-09-22T10:38:36.202Z,34.81
2022-09-22T10:39:36.116Z,34.86
2022-09-22T10:40:36.238Z,34.70
2022-09-22T10:41:36.060Z,34.85
2022-09-22T10:42:36.056Z,34.94
2022-09-22T10:43:36.003Z,34.79
2022-09-22T10:44:39.420Z,34.81
2022-09-22T10:45:35.965Z,35.08
2022-09-22T10:46:35.977Z,35.23
2022-09-22T10:47:35.915Z,35.23
2022-09-22T10:48:35.883Z,35.13
2022-09-22T10:49:35.835Z,35.08
2022-09-22T10:50:35.801Z,34.83
2022-09-22T10:51:35.774Z,34.79
2022-09-22T10:52:35.765Z,34.89
2022-09-22T10:53:35.755Z,35.01
2022-09-22T10:54:35.681Z,35.26
2022-09-22T10:55:35.667Z,35.20
2022-09-22T10:56:35.624Z,35.00
2022-09-22T10:57:35.598Z,35.00
2022-09-22T10:58:35.577Z,35.10
2022-09-22T10:59:35.541Z,34.53
2022-09-22T11:00:38.363Z,34.46
2022-09-22T11:01:35.539Z,34.56
2022-09-22T11:02:35.449Z,34.69
2022-09-22T11:03:35.418Z,34.63
2022-09-22T11:04:35.492Z,34.73
2022-09-22T11:05:35.379Z,34.70
2022-09-22T11:06:35.393Z,34.75
2022-09-22T11:07:35.309Z,34.88
2022-09-22T11:08:35.290Z,35.08
2022-09-22T11:09:35.273Z,34.96
2022-09-22T11:10:35.221Z,35.12
2022-09-22T11:11:38.850Z,35.10
2022-09-22T11:12:35.172Z,35.37
2022-09-22T11:13:35.140Z,35.63
2022-09-22T11:14:35.106Z,35.74
2022-09-22T11:15:35.108Z,35.79
2022-09-22T11:16:35.049Z,35.91
2022-09-22T11:17:35.023Z,36.01
2022-09-22T11:18:38.947Z,36.26
2022-09-22T11:19:34.967Z,36.33
2022-09-22T11:20:34.940Z,36.50
2022-09-22T11:21:34.928Z,36.53
2022-09-22T11:22:34.888Z,36.60
2022-09-22T11:23:34.857Z,36.33
2022-09-22T11:24:34.832Z,36.28
2022-09-22T11:25:34.809Z,36.26
2022-09-22T11:26:34.797Z,36.18
2022-09-22T11:27:34.750Z,36.36
2022-09-22T11:28:34.709Z,36.35
2022-09-22T11:29:34.684Z,36.60
2022-09-22T11:30:34.707Z,36.57
2022-09-22T11:31:34.649Z,36.41
2022-09-22T11:32:34.603Z,36.35
2022-09-22T11:33:34.580Z,36.36
2022-09-22T11:34:34.548Z,36.36
2022-09-22T11:35:34.516Z,36.53
2022-09-22T11:36:34.518Z,36.60
2022-09-22T11:37:34.474Z,36.62
2022-09-22T11:38:34.432Z,36.84
2022-09-22T11:39:34.410Z,36.91
2022-09-22T11:40:34.456Z,36.96
2022-09-22T11:41:34.349Z,37.15
2022-09-22T11:42:34.351Z,37.14
2022-09-22T11:43:34.304Z,37.23
2022-09-22T11:44:34.275Z,36.96
2022-09-22T11:45:34.250Z,36.66
2022-09-22T11:46:34.220Z,36.67
2022-09-22T11:47:34.186Z,36.85
2022-09-22T11:48:34.185Z,36.96
2022-09-22T11:49:34.130Z,36.70
2022-09-22T11:50:34.102Z,36.70
2022-09-22T11:51:34.073Z,36.72
2022-09-22T11:52:34.047Z,36.32
2022-09-22T11:53:34.018Z,36.32
2022-09-22T11:54:34.032Z,35.60
2022-09-22T11:55:33.961Z,35.59
2022-09-22T11:56:33.934Z,35.54
2022-09-22T11:57:33.922Z,35.59
2022-09-22T11:58:33.885Z,35.63
2022-09-22T11:59:33.864Z,35.90
2022-09-22T12:00:33.847Z,36.05
2022-09-22T12:01:33.799Z,36.14
2022-09-22T12:02:33.862Z,36.35
2022-09-22T12:03:33.820Z,36.69
2022-09-22T12:04:33.718Z,36.97
2022-09-22T12:05:33.701Z,37.16
2022-09-22T12:06:33.680Z,37.36
2022-09-22T12:07:33.634Z,37.31
2022-09-22T12:08:33.601Z,37.40
2022-09-22T12:09:35.931Z,37.57
2022-09-22T12:10:33.569Z,37.50
2022-09-22T12:11:33.521Z,37.71
2022-09-22T12:12:33.492Z,37.71
2022-09-22T12:13:33.471Z,37.68
2022-09-22T12:14:33.439Z,37.56
2022-09-22T12:15:33.433Z,37.43
2022-09-22T12:16:33.398Z,37.33
2022-09-22T12:17:33.358Z,37.44
2022-09-22T12:18:33.330Z,37.16
2022-09-22T12:19:33.309Z,37.15
2022-09-22T12:20:33.274Z,37.21
2022-09-22T12:21:33.252Z,37.33
2022-09-22T12:22:33.232Z,37.29
2022-09-22T12:23:33.198Z,37.41
2022-09-22T12:24:33.166Z,37.56
2022-09-22T12:25:47.623Z,37.63
2022-09-22T12:26:33.122Z,37.83
2022-09-22T12:27:33.090Z,37.83
2022-09-22T12:28:33.059Z,38.02
2022-09-22T12:29:33.034Z,38.09
2022-09-22T12:30:33.066Z,38.28
2022-09-22T12:31:32.980Z,38.60
2022-09-22T12:32:33.039Z,38.72
2022-09-22T12:33:32.931Z,38.62
2022-09-22T12:34:32.894Z,38.60
2022-09-22T12:35:32.863Z,38.84
2022-09-22T12:36:32.853Z,39.08
2022-09-22T12:37:32.817Z,39.17
2022-09-22T12:38:32.826Z,39.19
2022-09-22T12:39:32.772Z,39.39
2022-09-22T12:40:32.857Z,39.14
2022-09-22T12:41:32.705Z,38.81
2022-09-22T12:42:32.679Z,38.82
2022-09-22T12:43:32.659Z,39.04
2022-09-22T12:44:32.803Z,39.23
2022-09-22T12:45:32.607Z,39.15
2022-09-22T12:46:32.571Z,39.08
2022-09-22T12:47:32.545Z,39.11
2022-09-22T12:48:32.521Z,39.01
2022-09-22T12:49:32.496Z,38.79
2022-09-22T12:50:32.489Z,39.03
2022-09-22T12:51:32.447Z,39.03
2022-09-22T12:52:32.412Z,38.65
2022-09-22T12:53:32.434Z,38.60
2022-09-22T12:54:32.362Z,38.28
2022-09-22T12:55:32.329Z,38.41
2022-09-22T12:56:32.317Z,38.56
2022-09-22T12:57:32.280Z,38.58
2022-09-22T12:58:32.246Z,38.72
2022-09-22T12:59:32.217Z,38.79
2022-09-22T13:00:33.222Z,38.82
2022-09-22T13:01:32.267Z,38.85
2022-09-22T13:02:32.140Z,38.73
2022-09-22T13:03:32.129Z,38.27
2022-09-22T13:04:32.085Z,38.29
2022-09-22T13:05:32.055Z,38.29
2022-09-22T13:06:32.032Z,38.28
2022-09-22T13:07:32.035Z,38.42
2022-09-22T13:08:31.979Z,38.58
2022-09-22T13:09:31.952Z,38.73
2022-09-22T13:10:31.918Z,38.63